Time;durP1;ratioP1;P1;durP2;ratioP2;P2;SDS_P1;SDS_P2;PMS_P1;PMS_P2;Temp;Humidity;BMP_temperature;BMP_pressure;BME280_temperature;BME280_humidity;BME280_pressure;Samples;Min_cycle;Max_cycle;Signal;HPM_P1;HPM_P2
2023/11/28 00:02:16;;;;;;;3.10;1.80;;;;;;;0.57;91.81;90673.44;4950324;29;20563;-77
2023/11/28 00:04:42;;;;;;;3.78;2.00;;;;;;;0.57;90.83;90670.09;4949954;29;20094;-77
2023/11/28 00:07:07;;;;;;;3.55;1.98;;;;;;;0.55;91.45;90660.06;4949986;29;20037;-77
2023/11/28 00:09:33;;;;;;;3.33;1.83;;;;;;;0.47;91.75;90658.06;4950111;29;20396;-77
2023/11/28 00:11:59;;;;;;;3.10;1.83;;;;;;;0.41;92.29;90659.16;4945005;29;20031;-77
2023/11/28 00:14:25;;;;;;;3.00;1.98;;;;;;;0.36;91.88;90659.97;4948027;29;20530;-77
2023/11/28 00:16:50;;;;;;;4.57;2.10;;;;;;;0.32;91.86;90676.97;4933365;29;20054;-77
2023/11/28 00:19:17;;;;;;;3.88;2.00;;;;;;;0.28;93.73;90680.34;4949572;28;20582;-77
2023/11/28 00:21:43;;;;;;;4.20;2.30;;;;;;;0.30;92.42;90673.13;4950417;29;20032;-77
2023/11/28 00:24:08;;;;;;;4.43;2.20;;;;;;;0.31;92.87;90674.66;4949835;29;20098;-77
2023/11/28 00:26:35;;;;;;;4.47;2.20;;;;;;;0.30;93.84;90691.16;4946516;29;20036;-77
2023/11/28 00:29:01;;;;;;;3.83;2.15;;;;;;;0.26;95.42;90695.28;4913203;29;20603;-77
2023/11/28 00:31:27;;;;;;;4.40;2.30;;;;;;;0.25;94.62;90680.88;4956107;28;20174;-77
2023/11/28 00:33:52;;;;;;;3.47;2.08;;;;;;;0.33;94.41;90691.38;4932817;29;20133;-77
2023/11/28 00:36:19;;;;;;;3.38;2.08;;;;;;;0.38;93.95;90681.06;4942552;29;20035;-77
2023/11/28 00:38:45;;;;;;;3.90;2.20;;;;;;;0.41;92.25;90664.31;4929387;29;20074;-77
2023/11/28 00:41:11;;;;;;;3.72;2.10;;;;;;;0.50;91.63;90669.66;4917819;29;20388;-77
2023/11/28 00:43:37;;;;;;;5.20;2.00;;;;;;;0.54;89.58;90668.06;4932733;29;20043;-77
2023/11/28 00:46:03;;;;;;;2.97;1.90;;;;;;;0.56;88.49;90655.69;4929782;29;20066;-77
2023/11/28 00:48:38;;;;;;;3.85;2.15;;;;;;;0.60;88.28;90647.16;4943649;29;20414;-77
2023/11/28 00:51:05;;;;;;;3.90;2.03;;;;;;;0.60;87.93;90634.28;4950495;29;20039;-77
2023/11/28 00:53:30;;;;;;;3.47;1.95;;;;;;;0.56;89.49;90619.63;4930650;29;20074;-77
2023/11/28 00:55:56;;;;;;;2.80;1.80;;;;;;;0.53;87.93;90602.16;4950574;28;20043;-77
2023/11/28 00:58:22;;;;;;;3.95;1.98;;;;;;;0.48;89.90;90618.41;4950502;29;20031;-76
2023/11/28 01:00:47;;;;;;;3.78;2.05;;;;;;;0.43;91.53;90620.25;4933280;29;20043;-77
2023/11/28 01:03:13;;;;;;;3.60;2.00;;;;;;;0.36;91.18;90610.25;4947925;29;20042;-77
2023/11/28 01:05:41;;;;;;;3.25;1.88;;;;;;;0.29;92.18;90599.50;4924864;29;20050;-77
2023/11/28 01:08:08;;;;;;;3.90;2.00;;;;;;;0.25;92.13;90608.81;4949848;29;20031;-77
2023/11/28 01:10:33;;;;;;;3.40;2.00;;;;;;;0.18;93.51;90616.81;4949442;28;20065;-77
2023/11/28 01:12:59;;;;;;;3.42;2.05;;;;;;;0.11;94.76;90622.31;4934335;29;20446;-77
2023/11/28 01:15:25;;;;;;;3.30;1.88;;;;;;;0.08;94.28;90625.41;4942356;29;20221;-77
2023/11/28 01:17:50;;;;;;;3.33;1.90;;;;;;;0.05;95.61;90618.22;4942195;29;20384;-77
2023/11/28 01:20:16;;;;;;;3.60;2.00;;;;;;;0.00;95.74;90615.69;4935144;29;20051;-77
2023/11/28 01:22:41;;;;;;;2.85;1.70;;;;;;;-0.04;96.58;90602.59;4954045;29;20093;-77
2023/11/28 01:25:07;;;;;;;3.17;1.95;;;;;;;-0.07;97.08;90597.19;4934319;29;20136;-77
2023/11/28 01:27:33;;;;;;;2.45;1.70;;;;;;;-0.11;97.22;90596.19;4935756;29;20039;-76
2023/11/28 01:29:59;;;;;;;2.47;1.45;;;;;;;-0.15;99.64;90592.63;4952280;29;20384;-76
2023/11/28 01:32:24;;;;;;;2.25;1.50;;;;;;;-0.23;100.00;90588.81;4935708;29;20037;-77
2023/11/28 01:34:50;;;;;;;3.08;1.40;;;;;;;-0.27;100.00;90578.31;4947003;29;20048;-76
2023/11/28 01:37:18;;;;;;;3.22;1.70;;;;;;;-0.34;100.00;90582.19;4935161;29;20035;-77
2023/11/28 01:39:43;;;;;;;2.78;1.67;;;;;;;-0.37;100.00;90588.63;4935514;29;20737;-77
2023/11/28 01:42:09;;;;;;;4.10;1.88;;;;;;;-0.44;100.00;90583.03;4952356;29;20023;-77
2023/11/28 01:44:34;;;;;;;2.90;1.80;;;;;;;-0.47;100.00;90578.41;4946425;29;20047;-77
2023/11/28 01:47:02;;;;;;;3.75;2.10;;;;;;;-0.51;100.00;90582.53;4934902;29;20439;-76
2023/11/28 01:49:34;;;;;;;2.75;1.73;;;;;;;-0.55;100.00;90587.44;4935239;29;20039;-77
2023/11/28 01:52:01;;;;;;;2.85;1.67;;;;;;;-0.56;100.00;90574.84;4951983;29;20031;-77
2023/11/28 01:54:27;;;;;;;3.03;1.73;;;;;;;-0.56;100.00;90567.91;4946861;29;20499;-77
2023/11/28 01:56:53;;;;;;;2.90;1.60;;;;;;;-0.53;100.00;90572.53;4944791;29;20051;-77
2023/11/28 01:59:19;;;;;;;2.35;1.55;;;;;;;-0.54;100.00;90570.22;4935160;29;20059;-77
2023/11/28 02:01:44;;;;;;;4.85;1.77;;;;;;;-0.64;100.00;90556.38;4952248;29;20075;-76
2023/11/28 02:04:10;;;;;;;3.65;1.70;;;;;;;-0.68;100.00;90541.75;4951660;29;20035;-76
2023/11/28 02:06:38;;;;;;;2.80;1.60;;;;;;;-0.69;100.00;90535.84;4934910;29;20443;-76
2023/11/28 02:09:05;;;;;;;2.80;1.48;;;;;;;-0.73;100.00;90527.13;4920010;29;20024;-76
2023/11/28 02:11:31;;;;;;;2.60;1.58;;;;;;;-0.75;100.00;90531.75;4952391;29;20521;-77
2023/11/28 02:13:57;;;;;;;2.33;1.52;;;;;;;-0.76;100.00;90540.53;4934511;29;20035;-77
2023/11/28 02:16:23;;;;;;;2.40;1.50;;;;;;;-0.83;100.00;90534.91;4931717;29;20587;-77
2023/11/28 02:18:48;;;;;;;2.03;1.30;;;;;;;-0.86;100.00;90523.38;4934752;29;20023;-77
2023/11/28 02:21:14;;;;;;;2.90;1.60;;;;;;;-0.88;100.00;90520.28;4943783;29;20248;-76
2023/11/28 02:23:40;;;;;;;2.70;1.55;;;;;;;-0.91;100.00;90513.09;4928143;29;20059;-77
2023/11/28 02:26:23;;;;;;;2.60;1.50;;;;;;;-0.85;100.00;90521.56;4909807;29;20043;-77
2023/11/28 02:28:48;;;;;;;2.88;1.63;;;;;;;-0.82;100.00;90531.28;4948331;29;20419;-77
2023/11/28 02:31:14;;;;;;;2.85;1.55;;;;;;;-0.85;100.00;90526.69;4944192;29;20027;-77
2023/11/28 02:33:39;;;;;;;2.88;1.50;;;;;;;-0.87;100.00;90526.19;4950921;29;20385;-77
2023/11/28 02:36:05;;;;;;;3.00;1.35;;;;;;;-0.85;100.00;90531.84;4934470;29;20054;-77
2023/11/28 02:38:31;;;;;;;2.25;1.33;;;;;;;-0.85;100.00;90526.69;4931448;29;20142;-77
2023/11/28 02:40:57;;;;;;;2.25;1.42;;;;;;;-0.87;100.00;90526.19;4915847;29;20122;-77
2023/11/28 02:43:22;;;;;;;2.92;1.30;;;;;;;-0.90;100.00;90519.78;4943388;29;20047;-76
2023/11/28 02:45:48;;;;;;;3.70;1.38;;;;;;;-0.93;100.00;90514.38;4943172;29;20094;-76
2023/11/28 02:48:13;;;;;;;2.22;1.40;;;;;;;-0.91;100.00;90512.31;4951220;29;20047;-77
2023/11/28 02:50:40;;;;;;;3.30;1.27;;;;;;;-0.91;100.00;90504.63;4934751;29;20038;-76
2023/11/28 02:53:08;;;;;;;2.28;1.50;;;;;;;-0.94;100.00;90487.19;4949930;29;20385;-77
2023/11/28 02:55:33;;;;;;;1.67;1.25;;;;;;;-0.95;100.00;90483.06;4949048;29;20427;-77
2023/11/28 02:58:00;;;;;;;4.13;1.50;;;;;;;-0.97;100.00;90474.84;4931264;29;20091;-77
2023/11/28 03:00:25;;;;;;;1.67;1.20;;;;;;;-1.00;100.00;90467.69;4951470;29;20023;-77
2023/11/28 03:02:51;;;;;;;2.55;1.30;;;;;;;-1.00;100.00;90453.03;4934093;29;20047;-77
2023/11/28 03:05:17;;;;;;;2.78;1.40;;;;;;;-0.69;100.00;90451.06;4932943;29;20036;-77
2023/11/28 03:07:42;;;;;;;1.25;1.15;;;;;;;-0.66;100.00;90447.94;4950643;29;20035;-77
2023/11/28 03:10:08;;;;;;;2.53;1.50;;;;;;;-0.66;100.00;90460.03;4950714;29;20546;-77
2023/11/28 03:12:35;;;;;;;1.90;1.40;;;;;;;-0.68;100.00;90469.81;4951400;29;20047;-77
2023/11/28 03:15:01;;;;;;;2.38;1.40;;;;;;;-0.73;100.00;90455.19;4932770;29;20023;-77
2023/11/28 03:17:26;;;;;;;2.38;1.20;;;;;;;-0.77;100.00;90438.00;4923813;29;20047;-77
2023/11/28 03:19:52;;;;;;;2.38;1.30;;;;;;;-0.83;100.00;90432.16;4913992;29;20028;-76
2023/11/28 03:22:18;;;;;;;2.00;1.20;;;;;;;-0.86;100.00;90422.38;4933262;29;20142;-76
2023/11/28 03:24:43;;;;;;;1.48;1.10;;;;;;;-0.89;100.00;90425.50;4950601;29;20023;-76
2023/11/28 03:27:09;;;;;;;2.50;1.10;;;;;;;-0.94;100.00;90428.09;4948745;29;20034;-77
2023/11/28 03:29:36;;;;;;;1.83;1.20;;;;;;;-0.99;100.00;90420.41;4944897;29;20571;-77
2023/11/28 03:32:02;;;;;;;1.40;1.00;;;;;;;-1.02;100.00;90423.53;4933666;29;20039;-77
2023/11/28 03:34:28;;;;;;;4.18;1.27;;;;;;;-1.03;100.00;90415.06;4932819;29;20023;-77
2023/11/28 03:36:53;;;;;;;1.08;0.90;;;;;;;-0.98;100.00;90419.41;4950238;29;20058;-77
2023/11/28 03:39:19;;;;;;;1.25;1.10;;;;;;;-0.99;100.00;90420.41;4942309;29;20535;-77
2023/11/28 03:41:49;;;;;;;2.03;1.25;;;;;;;-0.96;100.00;90412.19;4943427;29;20035;-76
2023/11/28 03:44:15;;;;;;;1.60;1.05;;;;;;;-1.01;100.00;90410.44;4932869;29;20027;-77
2023/11/28 03:46:41;;;;;;;0.93;0.80;;;;;;;-1.03;100.00;90407.34;4949889;29;20555;-77
2023/11/28 03:49:06;;;;;;;1.48;1.08;;;;;;;-1.02;100.00;90405.53;4942259;29;20083;-76
2023/11/28 03:51:34;;;;;;;1.33;1.10;;;;;;;-0.99;100.00;90402.44;4950126;29;20075;-76
2023/11/28 03:54:00;;;;;;;1.48;1.13;;;;;;;-0.98;100.00;90391.13;4932512;29;20522;-76
2023/11/28 03:56:26;;;;;;;1.42;1.02;;;;;;;-0.90;100.00;90400.81;4922148;29;20071;-76
2023/11/28 03:58:52;;;;;;;1.65;0.95;;;;;;;-0.88;100.00;90403.91;4929622;29;20062;-77
2023/11/28 04:01:18;;;;;;;3.15;1.27;;;;;;;-0.89;100.00;90397.25;4943563;28;20039;-76
2023/11/28 04:03:43;;;;;;;1.35;1.10;;;;;;;-0.90;100.00;90398.25;4917409;29;20503;-76
2023/11/28 04:06:09;;;;;;;3.15;1.20;;;;;;;-0.93;100.00;90401.38;4930667;29;20074;-76
2023/11/28 04:08:35;;;;;;;1.65;1.17;;;;;;;-0.91;100.00;90399.31;4918070;29;20138;-77
2023/11/28 04:11:01;;;;;;;1.80;1.15;;;;;;;-0.94;100.00;90398.03;4926906;29;20043;-76
2023/11/28 04:13:26;;;;;;;1.90;1.15;;;;;;;-0.97;100.00;90385.72;4929858;29;20075;-76
2023/11/28 04:15:53;;;;;;;1.15;1.00;;;;;;;-0.97;100.00;90384.97;4938755;29;20047;-76
2023/11/28 04:18:19;;;;;;;2.30;1.10;;;;;;;-0.94;100.00;90389.56;4956833;28;20031;-76
2023/11/28 04:20:45;;;;;;;1.25;1.10;;;;;;;-0.90;100.00;90393.13;4932573;29;20492;-77
2023/11/28 04:23:11;;;;;;;1.05;0.90;;;;;;;-0.82;100.00;90378.97;4947206;29;20031;-77
2023/11/28 04:25:36;;;;;;;2.08;1.20;;;;;;;-0.77;100.00;90369.41;4923975;29;20210;-77
2023/11/28 04:28:02;;;;;;;1.27;0.80;;;;;;;-0.60;100.00;90370.84;4951690;28;20519;-77
2023/11/28 04:30:28;;;;;;;0.98;0.88;;;;;;;-0.49;100.00;90365.31;4917081;29;20035;-77
2023/11/28 04:32:54;;;;;;;1.52;1.10;;;;;;;-0.46;100.00;90359.63;4912964;29;20050;-76
2023/11/28 04:35:19;;;;;;;1.10;0.88;;;;;;;-0.52;100.00;90352.25;4929811;29;20067;-77
2023/11/28 04:37:46;;;;;;;1.20;0.90;;;;;;;-0.64;100.00;90350.03;4933460;29;20041;-76
2023/11/28 04:40:13;;;;;;;1.60;1.10;;;;;;;-0.73;100.00;90338.81;4914908;29;20077;-76
2023/11/28 04:42:39;;;;;;;0.98;0.75;;;;;;;-0.80;100.00;90328.84;4948774;28;20040;-76
2023/11/28 04:45:07;;;;;;;1.30;0.90;;;;;;;-0.85;100.00;90336.59;4923175;29;20075;-76
2023/11/28 04:47:32;;;;;;;1.20;0.90;;;;;;;-0.90;100.00;90334.03;4924654;29;20039;-76
2023/11/28 04:49:58;;;;;;;0.93;0.90;;;;;;;-0.98;100.00;90332.84;4926588;29;20488;-76
2023/11/28 04:52:24;;;;;;;1.33;1.00;;;;;;;-1.01;100.00;90327.44;4929546;29;20043;-76
2023/11/28 04:54:49;;;;;;;2.00;1.27;;;;;;;-1.05;100.00;90322.09;4932227;29;20447;-76
2023/11/28 04:57:15;;;;;;;1.45;1.10;;;;;;;-1.09;100.00;90311.59;4933133;29;20091;-76
2023/11/28 04:59:40;;;;;;;1.98;1.10;;;;;;;-1.08;100.00;90310.56;4910144;29;20118;-76
2023/11/28 05:02:07;;;;;;;1.10;0.90;;;;;;;-1.11;100.00;90298.25;4917827;29;20587;-76
2023/11/28 05:04:33;;;;;;;1.63;1.00;;;;;;;-1.14;100.00;90296.22;4916213;29;20512;-76
2023/11/28 05:06:59;;;;;;;1.65;0.82;;;;;;;-1.10;100.00;90304.16;4932473;29;20034;-76
2023/11/28 05:09:27;;;;;;;1.15;0.90;;;;;;;-1.08;100.00;90302.88;4928174;29;20062;-77
2023/11/28 05:11:53;;;;;;;4.13;1.20;;;;;;;-1.10;100.00;90299.03;4924555;29;20496;-76
2023/11/28 05:14:18;;;;;;;1.08;0.98;;;;;;;-1.11;100.00;90313.66;4924075;29;20033;-76
2023/11/28 05:16:44;;;;;;;2.13;0.93;;;;;;;-1.14;100.00;90306.50;4929417;29;20100;-77
2023/11/28 05:19:10;;;;;;;2.85;1.20;;;;;;;-1.14;100.00;90309.06;4917088;29;20036;-76
2023/11/28 05:21:37;;;;;;;2.88;1.27;;;;;;;-1.14;100.00;90298.03;4941248;29;20039;-76
2023/11/28 05:24:03;;;;;;;1.33;1.00;;;;;;;-1.14;100.00;90293.66;4932228;29;20046;-76
2023/11/28 05:26:28;;;;;;;1.23;0.90;;;;;;;-1.22;100.00;90289.09;4932718;29;20405;-76
2023/11/28 05:28:54;;;;;;;1.40;1.02;;;;;;;-1.20;100.00;90287.03;4932451;29;20051;-76
2023/11/28 05:31:20;;;;;;;1.42;1.13;;;;;;;-1.24;100.00;90293.72;4930469;29;20028;-77
2023/11/28 05:33:45;;;;;;;2.03;1.20;;;;;;;-1.26;100.00;90286.31;4934799;29;20047;-77
2023/11/28 05:36:11;;;;;;;0.98;0.93;;;;;;;-1.25;100.00;90297.34;4931642;29;20056;-77
2023/11/28 05:38:38;;;;;;;2.33;1.23;;;;;;;-1.22;100.00;90311.44;4930680;29;20042;-77
2023/11/28 05:41:04;;;;;;;1.50;1.08;;;;;;;-1.27;100.00;90325.06;4930887;29;20036;-76
2023/11/28 05:43:32;;;;;;;1.70;1.15;;;;;;;-1.33;100.00;90306.38;4928748;29;20423;-77
2023/11/28 05:45:59;;;;;;;1.63;1.00;;;;;;;-1.31;100.00;90308.66;4925729;29;20527;-76
2023/11/28 05:48:25;;;;;;;1.42;1.10;;;;;;;-1.35;100.00;90321.28;4933611;29;20075;-78
2023/11/28 05:50:52;;;;;;;1.88;1.10;;;;;;;-1.41;100.00;90313.88;4931420;29;20510;-79
2023/11/28 05:53:19;;;;;;;1.27;1.00;;;;;;;-1.43;100.00;90311.56;4914383;29;20043;-77
2023/11/28 05:55:47;;;;;;;1.40;1.10;;;;;;;-1.43;100.00;90315.94;4927372;29;20110;-82
2023/11/28 05:58:14;;;;;;;1.67;1.10;;;;;;;-1.35;100.00;90318.72;4931793;29;20031;-81
2023/11/28 06:00:41;;;;;;;1.20;1.00;;;;;;;-1.23;100.00;90331.22;4896833;29;20036;-80
2023/11/28 06:03:07;;;;;;;1.63;1.20;;;;;;;-1.22;100.00;90326.84;4929188;29;20047;-81
2023/11/28 06:05:34;;;;;;;1.60;1.10;;;;;;;-1.23;100.00;90335.59;4931820;29;20512;-78
2023/11/28 06:08:00;;;;;;;2.00;1.30;;;;;;;-1.25;100.00;90333.28;4913428;29;20044;-79
2023/11/28 06:10:29;;;;;;;3.08;1.55;;;;;;;-1.26;100.00;90339.47;4926556;29;20416;-80
2023/11/28 06:12:55;;;;;;;1.73;1.20;;;;;;;-1.19;100.00;90341.69;4933524;29;20067;-80
2023/11/28 06:15:22;;;;;;;1.65;1.20;;;;;;;-1.22;100.00;90347.38;4937278;29;20028;-80
2023/11/28 06:17:48;;;;;;;5.22;1.50;;;;;;;-1.19;100.00;90347.63;4936496;29;20039;-82
2023/11/28 06:20:16;;;;;;;1.73;1.30;;;;;;;-1.26;100.00;90352.28;4932462;29;20418;-77
2023/11/28 06:22:43;;;;;;;2.10;1.20;;;;;;;-1.31;100.00;90350.50;4932292;29;20531;-78
2023/11/28 06:25:09;;;;;;;2.00;1.30;;;;;;;-1.28;100.00;90360.25;4934349;29;20019;-80
2023/11/28 06:27:35;;;;;;;2.63;1.20;;;;;;;-1.28;100.00;90355.13;4929542;29;20046;-79
2023/11/28 06:30:00;;;;;;;2.28;1.30;;;;;;;-1.31;100.00;90350.50;4932592;29;20044;-79
2023/11/28 06:32:26;;;;;;;4.93;1.48;;;;;;;-1.33;100.00;90346.66;4934658;29;20126;-81
2023/11/28 06:34:52;;;;;;;1.58;1.10;;;;;;;-1.34;100.00;90332.31;4932151;29;20036;-79
2023/11/28 06:37:17;;;;;;;1.33;1.10;;;;;;;-1.30;100.00;90334.06;4934801;29;20055;-80
2023/11/28 06:39:45;;;;;;;1.35;1.02;;;;;;;-1.18;100.00;90338.13;4929564;29;20035;-80
2023/11/28 06:42:11;;;;;;;0.90;0.90;;;;;;;-1.18;100.00;90338.88;4935137;29;20487;-79
2023/11/28 06:44:37;;;;;;;2.13;1.05;;;;;;;-1.10;100.00;90345.25;4933692;29;20066;-79
2023/11/28 06:47:02;;;;;;;1.40;1.20;;;;;;;-0.92;100.00;90342.03;4937681;29;20130;-79
2023/11/28 06:49:28;;;;;;;1.67;1.00;;;;;;;-0.68;100.00;90342.09;4935787;29;20066;-78
2023/11/28 06:51:54;;;;;;;1.73;1.20;;;;;;;-0.41;100.00;90327.97;4962255;28;20563;-78
2023/11/28 06:54:19;;;;;;;3.50;1.10;;;;;;;-0.45;100.00;90334.69;4940294;28;20054;-78
2023/11/28 06:56:45;;;;;;;2.08;1.20;;;;;;;-0.47;100.00;90331.66;4952413;29;20062;-79
2023/11/28 06:59:11;;;;;;;1.58;1.10;;;;;;;-0.49;100.00;90323.44;4952742;29;20091;-78
2023/11/28 07:01:42;;;;;;;1.33;1.10;;;;;;;-0.31;100.00;90306.56;4952116;29;20066;-78
2023/11/28 07:04:08;;;;;;;1.95;1.23;;;;;;;-0.24;100.00;90292.31;4951820;29;20067;-78
2023/11/28 07:06:33;;;;;;;1.52;0.88;;;;;;;0.65;100.00;90287.63;4931062;29;20039;-78
2023/11/28 07:08:59;;;;;;;1.80;1.20;;;;;;;1.81;100.00;90320.34;4934883;29;20046;-78
2023/11/28 07:11:25;;;;;;;2.42;1.48;;;;;;;2.88;100.00;90324.44;4953009;29;20035;-78
2023/11/28 07:13:50;;;;;;;1.98;1.20;;;;;;;4.11;96.14;90309.34;4940018;29;20087;-79
2023/11/28 07:24:05;;;;;;;0.80;0.80;;;;;;;6.68;69.31;90320.44;4943377;29;20106;-78
2023/11/28 07:26:30;;;;;;;0.80;0.80;;;;;;;6.27;73.39;90308.13;4949103;23;20475;-78
2023/11/28 07:28:57;;;;;;;1.02;0.80;;;;;;;6.86;74.10;90303.66;4931052;29;20047;-75
2023/11/28 07:31:24;;;;;;;1.38;0.90;;;;;;;7.29;68.15;90310.44;4916728;29;20103;-75
2023/11/28 07:33:49;;;;;;;1.00;0.90;;;;;;;7.12;69.16;90320.97;4931452;29;20050;-75
2023/11/28 07:36:15;;;;;;;2.22;1.13;;;;;;;7.85;65.31;90335.34;4931350;29;20039;-74
2023/11/28 07:38:43;;;;;;;2.30;1.00;;;;;;;8.75;61.17;90333.78;4930206;29;20110;-74
2023/11/28 07:41:15;;;;;;;3.97;1.17;;;;;;;9.77;58.76;90333.66;4930767;29;20495;-74
2023/11/28 07:43:42;;;;;;;1.70;1.00;;;;;;;10.45;52.29;90337.28;4930852;29;20051;-74
2023/11/28 07:46:08;;;;;;;1.88;1.10;;;;;;;11.14;49.19;90343.72;4930219;29;20040;-73
2023/11/28 07:48:34;;;;;;;1.20;0.98;;;;;;;11.66;45.94;90347.81;4926536;29;20094;-75
2023/11/28 07:50:59;;;;;;;1.13;0.85;;;;;;;12.32;43.91;90358.44;4913886;29;20035;-74
2023/11/28 07:53:25;;;;;;;1.30;0.88;;;;;;;12.88;42.26;90365.00;4929416;29;20086;-74
2023/11/28 07:55:51;;;;;;;1.15;0.90;;;;;;;13.49;38.81;90361.44;4927111;29;20086;-75
2023/11/28 07:58:17;;;;;;;1.13;0.90;;;;;;;14.24;38.79;90369.47;4925323;29;20066;-75
2023/11/28 08:00:44;;;;;;;0.85;0.70;;;;;;;14.47;37.27;90374.59;4928783;29;20086;-74
2023/11/28 08:03:09;;;;;;;2.03;0.80;;;;;;;14.28;37.19;90383.44;4923136;29;20122;-75
2023/11/28 08:05:37;;;;;;;3.92;1.50;;;;;;;14.81;37.79;90387.00;4930663;29;20526;-75
2023/11/28 08:08:03;;;;;;;4.88;2.00;;;;;;;15.15;37.52;90369.22;4929120;29;20048;-75
2023/11/28 08:10:29;;;;;;;4.13;1.50;;;;;;;15.07;39.09;90363.13;4913166;29;20086;-74
2023/11/28 08:12:54;;;;;;;2.58;1.58;;;;;;;15.58;37.23;90364.22;4911195;29;20047;-74
2023/11/28 08:15:20;;;;;;;1.95;1.38;;;;;;;15.12;36.26;90370.69;4929982;29;20038;-75
2023/11/28 08:17:46;;;;;;;2.78;1.30;;;;;;;15.85;37.03;90361.38;4931033;29;20067;-75
2023/11/28 08:20:11;;;;;;;2.25;1.30;;;;;;;15.91;36.93;90360.66;4921386;29;20444;-75
2023/11/28 08:22:37;;;;;;;2.40;1.40;;;;;;;15.27;36.01;90368.19;4934286;29;20035;-74
2023/11/28 08:25:03;;;;;;;4.38;1.58;;;;;;;15.53;36.33;90369.84;4935469;29;20027;-74
2023/11/28 08:27:28;;;;;;;1.75;1.20;;;;;;;15.67;34.70;90363.91;4938554;29;20677;-75
2023/11/28 08:29:54;;;;;;;2.97;1.40;;;;;;;16.29;34.59;90357.81;4956342;29;20046;-75
2023/11/28 08:32:20;;;;;;;3.00;1.50;;;;;;;15.46;35.59;90367.16;4955224;28;20035;-73
2023/11/28 08:34:46;;;;;;;1.50;0.90;;;;;;;13.87;35.53;90375.44;4942067;29;20398;-74
2023/11/28 08:37:12;;;;;;;3.15;1.40;;;;;;;13.60;38.38;90387.88;4956230;28;20066;-74
2023/11/28 08:39:38;;;;;;;2.13;1.38;;;;;;;12.37;42.88;90383.63;4918941;29;20078;-74
2023/11/28 08:42:04;;;;;;;2.67;1.20;;;;;;;13.07;40.94;90362.28;4934503;29;20478;-75
2023/11/28 08:44:32;;;;;;;2.22;1.30;;;;;;;11.99;44.01;90372.06;4949756;29;20114;-75
2023/11/28 08:47:00;;;;;;;1.98;1.10;;;;;;;11.39;45.25;90367.84;4954612;28;20402;-75
2023/11/28 08:49:26;;;;;;;4.63;1.17;;;;;;;11.57;47.79;90347.28;4955423;29;20530;-75
2023/11/28 08:51:53;;;;;;;2.65;1.20;;;;;;;12.03;45.60;90367.66;4932074;28;20039;-75
2023/11/28 08:54:18;;;;;;;2.03;1.20;;;;;;;11.94;45.02;90360.00;4933030;29;20034;-76
2023/11/28 08:56:44;;;;;;;2.42;1.30;;;;;;;11.01;50.84;90371.88;4962683;28;20047;-74
2023/11/28 08:59:09;;;;;;;3.08;1.60;;;;;;;10.67;53.97;90396.13;4940301;29;20031;-75
2023/11/28 09:01:35;;;;;;;2.45;1.40;;;;;;;10.45;54.53;90382.53;4949332;28;20388;-74
2023/11/28 09:04:01;;;;;;;2.47;1.40;;;;;;;10.42;55.08;90391.03;4954028;29;20042;-74
2023/11/28 09:06:27;;;;;;;2.22;1.20;;;;;;;10.16;53.45;90394.81;4956527;28;20039;-75
2023/11/28 09:08:53;;;;;;;1.38;0.93;;;;;;;9.97;52.62;90394.69;4956720;29;20031;-74
2023/11/28 09:11:18;;;;;;;3.70;1.42;;;;;;;9.46;60.28;90397.03;4955994;29;20566;-74
2023/11/28 09:13:44;;;;;;;2.08;1.30;;;;;;;9.21;60.84;90396.25;4956521;29;20119;-75
2023/11/28 09:16:12;;;;;;;2.05;1.38;;;;;;;9.10;61.92;90401.19;4956298;29;20035;-75
2023/11/28 09:18:41;;;;;;;2.22;1.40;;;;;;;8.63;64.53;90396.38;4939351;29;20081;-75
2023/11/28 09:21:07;;;;;;;2.15;1.20;;;;;;;8.63;64.88;90412.78;4939012;29;20035;-75
2023/11/28 09:23:36;;;;;;;2.50;1.45;;;;;;;8.93;64.05;90402.91;4956342;28;20034;-75
2023/11/28 09:26:02;;;;;;;2.58;1.33;;;;;;;9.09;64.19;90404.88;4956316;29;20154;-76
2023/11/28 09:28:28;;;;;;;3.15;1.40;;;;;;;9.14;65.26;90402.03;4936341;29;20118;-75
2023/11/28 09:30:54;;;;;;;4.05;1.48;;;;;;;9.07;65.65;90407.03;4939007;29;20051;-76
2023/11/28 09:33:19;;;;;;;1.73;1.27;;;;;;;9.29;63.66;90398.75;4949974;28;20043;-75
2023/11/28 09:35:45;;;;;;;1.48;1.05;;;;;;;9.54;62.49;90406.56;4953040;29;20418;-76
2023/11/28 09:38:11;;;;;;;1.60;1.10;;;;;;;9.85;60.61;90402.56;4953221;29;20508;-75
2023/11/28 09:40:40;;;;;;;1.63;1.20;;;;;;;10.15;58.39;90397.78;4953132;29;20645;-75
2023/11/28 09:43:06;;;;;;;1.02;0.80;;;;;;;10.30;53.12;90391.09;4945433;29;20564;-75
2023/11/28 09:45:40;;;;;;;1.42;0.85;;;;;;;10.62;51.14;90403.09;4947829;29;20507;-75
2023/11/28 09:48:13;;;;;;;1.42;1.00;;;;;;;10.86;52.32;90395.47;4951326;28;20047;-75
2023/11/28 09:50:39;;;;;;;1.48;1.00;;;;;;;11.18;52.08;90396.19;4953657;29;20245;-76
2023/11/28 09:53:06;;;;;;;1.75;1.20;;;;;;;10.65;57.40;90399.09;4949146;29;20027;-75
2023/11/28 09:55:32;;;;;;;2.40;1.17;;;;;;;10.95;55.72;90386.31;4927335;29;20031;-76
2023/11/28 09:58:03;;;;;;;4.53;1.20;;;;;;;11.06;57.44;90389.19;4955575;28;20039;-75
2023/11/28 10:00:34;;;;;;;1.55;1.15;;;;;;;11.02;55.45;90383.13;4952995;29;20031;-74
2023/11/28 10:03:01;;;;;;;1.73;1.20;;;;;;;11.15;54.99;90394.25;4952494;29;20526;-75
2023/11/28 10:05:27;;;;;;;1.92;0.98;;;;;;;11.31;51.06;90394.25;4952700;29;20043;-75
2023/11/28 10:07:54;;;;;;;3.58;0.80;;;;;;;11.56;50.38;90384.28;4952562;29;20045;-75
2023/11/28 10:10:21;;;;;;;1.73;1.00;;;;;;;11.67;47.30;90390.50;4944688;29;20029;-75
2023/11/28 10:12:50;;;;;;;1.13;0.93;;;;;;;11.60;50.65;90388.50;4952593;29;20495;-75
2023/11/28 10:15:17;;;;;;;1.77;1.00;;;;;;;11.32;53.58;90380.78;4952550;29;20031;-75
2023/11/28 10:17:43;;;;;;;1.92;1.20;;;;;;;10.97;57.78;90380.75;4952370;29;20043;-75
2023/11/28 10:20:10;;;;;;;1.48;1.17;;;;;;;11.23;56.27;90378.34;4952591;29;20035;-75
2023/11/28 10:22:38;;;;;;;5.28;1.35;;;;;;;11.11;57.45;90385.56;4952235;29;20504;-74
2023/11/28 10:25:11;;;;;;;1.35;1.05;;;;;;;10.67;57.79;90383.78;4944215;29;20025;-74
2023/11/28 10:27:41;;;;;;;1.60;1.17;;;;;;;11.01;58.69;90387.59;4935222;29;20146;-75
2023/11/28 10:30:11;;;;;;;1.92;1.15;;;;;;;11.00;55.58;90386.06;4935028;29;20043;-76
2023/11/28 10:32:37;;;;;;;1.30;0.73;;;;;;;10.45;54.27;90387.75;4951929;29;20090;-75
2023/11/28 10:35:06;;;;;;;0.95;0.77;;;;;;;10.38;54.92;90382.31;4933270;29;20035;-76
2023/11/28 10:37:36;;;;;;;1.42;1.00;;;;;;;10.40;55.99;90382.75;4951988;28;20067;-75
2023/11/28 10:40:06;;;;;;;1.05;0.80;;;;;;;10.62;55.08;90386.66;4952029;29;20083;-75
2023/11/28 10:42:33;;;;;;;0.65;0.65;;;;;;;10.62;52.07;90376.19;4934631;29;20042;-75
2023/11/28 10:45:00;;;;;;;2.60;0.73;;;;;;;10.87;53.89;90382.00;4941911;28;20027;-74
2023/11/28 10:47:29;;;;;;;0.77;0.70;;;;;;;10.83;51.91;90381.19;4951139;29;20039;-75
2023/11/28 10:49:58;;;;;;;0.98;0.65;;;;;;;10.76;50.46;90370.53;4934172;29;20043;-75
2023/11/28 10:52:26;;;;;;;0.65;0.65;;;;;;;10.71;49.94;90376.03;4934063;29;20047;-76
2023/11/28 10:54:55;;;;;;;0.82;0.70;;;;;;;10.93;51.64;90372.06;4931472;29;20403;-74
2023/11/28 10:57:26;;;;;;;0.73;0.60;;;;;;;10.91;50.18;90376.88;4950042;28;20043;-74
2023/11/28 11:00:09;;;;;;;0.73;0.70;;;;;;;10.47;48.57;90375.09;4918760;29;20039;-74
2023/11/28 11:02:35;;;;;;;0.75;0.73;;;;;;;10.73;52.80;90387.69;4927545;29;20902;-75
2023/11/28 11:05:06;;;;;;;0.98;0.80;;;;;;;11.14;49.40;90371.78;4937894;29;20031;-77
2023/11/28 11:07:34;;;;;;;0.82;0.80;;;;;;;11.07;49.68;90366.38;4921850;29;20110;-77
2023/11/28 11:10:03;;;;;;;1.25;1.05;;;;;;;11.35;49.43;90377.50;4951535;28;20668;-76
2023/11/28 11:12:31;;;;;;;0.93;0.80;;;;;;;11.65;49.08;90374.38;4949970;29;20524;-76
2023/11/28 11:15:08;;;;;;;3.72;2.63;;;;;;;11.64;38.77;90380.69;4949793;29;20105;-76
2023/11/28 11:18:04;;;;;;;0.80;0.80;;;;;;;11.48;43.91;90367.66;4951062;28;20047;-77
2023/11/28 11:20:32;;;;;;;2.58;1.27;;;;;;;11.98;45.82;90360.06;4927060;29;20039;-77
2023/11/28 11:23:01;;;;;;;0.70;0.70;;;;;;;12.19;42.25;90373.56;4948113;29;20055;-76
2023/11/28 11:25:40;;;;;;;0.70;0.70;;;;;;;12.22;38.71;90396.47;4933514;29;20050;-76
2023/11/28 11:28:07;;;;;;;0.40;0.40;;;;;;;12.51;33.88;90362.91;4946208;29;20506;-77
2023/11/28 11:30:36;;;;;;;0.40;0.40;;;;;;;12.45;33.03;90374.78;4951783;29;20473;-76
2023/11/28 11:33:01;;;;;;;0.73;0.70;;;;;;;12.28;33.46;90376.00;4933651;29;20067;-75
2023/11/28 11:35:29;;;;;;;0.68;0.65;;;;;;;12.00;40.33;90391.94;4946673;29;20054;-76
2023/11/28 11:37:55;;;;;;;0.40;0.40;;;;;;;11.96;35.12;90389.25;4947406;29;20417;-76